sensor_id;sensor_type;location;lat;lon;timestamp;temperature;humidity
64987;DHT22;51532;52.108;9.360;2022-12-29T00:00:08;8.00;83.40
64987;DHT22;51532;52.108;9.360;2022-12-29T00:02:40;7.90;83.40
64987;DHT22;51532;52.108;9.360;2022-12-29T00:05:07;7.90;83.40
64987;DHT22;51532;52.108;9.360;2022-12-29T00:07:34;7.90;83.50
64987;DHT22;51532;52.108;9.360;2022-12-29T00:10:00;8.00;82.90
64987;DHT22;51532;52.108;9.360;2022-12-29T00:12:27;8.00;83.20
64987;DHT22;51532;52.108;9.360;2022-12-29T00:15:14;8.00;82.80
64987;DHT22;51532;52.108;9.360;2022-12-29T00:18:00;8.00;82.90
64987;DHT22;51532;52.108;9.360;2022-12-29T00:20:27;8.00;83.00
64987;DHT22;51532;52.108;9.360;2022-12-29T00:23:13;8.00;82.50
64987;DHT22;51532;52.108;9.360;2022-12-29T00:26:03;8.00;82.40
64987;DHT22;51532;52.108;9.360;2022-12-29T00:28:50;8.00;82.90
64987;DHT22;51532;52.108;9.360;2022-12-29T00:31:49;8.00;82.70
64987;DHT22;51532;52.108;9.360;2022-12-29T00:34:35;8.00;83.00
64987;DHT22;51532;52.108;9.360;2022-12-29T00:37:20;8.00;83.20
64987;DHT22;51532;52.108;9.360;2022-12-29T00:40:07;8.00;83.10
64987;DHT22;51532;52.108;9.360;2022-12-29T00:42:53;8.00;82.80
64987;DHT22;51532;52.108;9.360;2022-12-29T00:45:49;8.00;83.00
64987;DHT22;51532;52.108;9.360;2022-12-29T00:48:16;8.00;83.30
64987;DHT22;51532;52.108;9.360;2022-12-29T00:51:03;8.10;83.30
64987;DHT22;51532;52.108;9.360;2022-12-29T00:53:29;8.10;83.60
64987;DHT22;51532;52.108;9.360;2022-12-29T00:55:56;8.10;83.30
64987;DHT22;51532;52.108;9.360;2022-12-29T00:58:23;8.10;83.60
64987;DHT22;51532;52.108;9.360;2022-12-29T01:00:50;8.10;83.70
64987;DHT22;51532;52.108;9.360;2022-12-29T01:03:17;8.10;83.80
64987;DHT22;51532;52.108;9.360;2022-12-29T01:05:43;8.20;83.40
64987;DHT22;51532;52.108;9.360;2022-12-29T01:08:12;8.10;83.70
64987;DHT22;51532;52.108;9.360;2022-12-29T01:10:38;8.20;83.80
64987;DHT22;51532;52.108;9.360;2022-12-29T01:13:05;8.20;83.60
64987;DHT22;51532;52.108;9.360;2022-12-29T01:15:32;8.20;83.70
64987;DHT22;51532;52.108;9.360;2022-12-29T01:17:59;8.30;83.70
64987;DHT22;51532;52.108;9.360;2022-12-29T01:20:26;8.20;83.80
64987;DHT22;51532;52.108;9.360;2022-12-29T01:22:55;8.20;84.00
64987;DHT22;51532;52.108;9.360;2022-12-29T01:25:22;8.20;84.20
64987;DHT22;51532;52.108;9.360;2022-12-29T01:27:49;8.20;84.30
64987;DHT22;51532;52.108;9.360;2022-12-29T01:30:16;8.20;84.00
64987;DHT22;51532;52.108;9.360;2022-12-29T01:32:43;8.20;83.80
64987;DHT22;51532;52.108;9.360;2022-12-29T01:35:10;8.20;84.00
64987;DHT22;51532;52.108;9.360;2022-12-29T01:37:37;8.20;84.00
64987;DHT22;51532;52.108;9.360;2022-12-29T01:40:04;8.20;84.10
64987;DHT22;51532;52.108;9.360;2022-12-29T01:42:31;8.20;83.90
64987;DHT22;51532;52.108;9.360;2022-12-29T01:45:09;8.20;83.90
64987;DHT22;51532;52.108;9.360;2022-12-29T01:47:53;8.20;83.80
64987;DHT22;51532;52.108;9.360;2022-12-29T01:52:58;8.30;83.70
64987;DHT22;51532;52.108;9.360;2022-12-29T01:55:30;8.30;83.40
64987;DHT22;51532;52.108;9.360;2022-12-29T01:58:00;8.30;83.30
64987;DHT22;51532;52.108;9.360;2022-12-29T02:00:30;8.30;83.40
64987;DHT22;51532;52.108;9.360;2022-12-29T02:02:56;8.30;83.40
64987;DHT22;51532;52.108;9.360;2022-12-29T02:05:28;8.30;83.40
64987;DHT22;51532;52.108;9.360;2022-12-29T02:07:59;8.40;83.30
64987;DHT22;51532;52.108;9.360;2022-12-29T02:10:29;8.50;83.10
64987;DHT22;51532;52.108;9.360;2022-12-29T02:12:57;8.50;83.20
64987;DHT22;51532;52.108;9.360;2022-12-29T02:15:58;8.50;83.20
64987;DHT22;51532;52.108;9.360;2022-12-29T02:30:29;8.40;84.40
64987;DHT22;51532;52.108;9.360;2022-12-29T02:33:27;8.40;84.20
64987;DHT22;51532;52.108;9.360;2022-12-29T02:36:07;8.40;84.20
64987;DHT22;51532;52.108;9.360;2022-12-29T02:41:43;8.40;84.00
64987;DHT22;51532;52.108;9.360;2022-12-29T02:44:27;8.40;84.20
64987;DHT22;51532;52.108;9.360;2022-12-29T02:47:04;8.50;83.60
64987;DHT22;51532;52.108;9.360;2022-12-29T02:49:38;8.50;83.80
64987;DHT22;51532;52.108;9.360;2022-12-29T02:55:25;8.50;84.00
64987;DHT22;51532;52.108;9.360;2022-12-29T02:58:20;8.60;84.00
64987;DHT22;51532;52.108;9.360;2022-12-29T03:07:28;8.60;84.00
64987;DHT22;51532;52.108;9.360;2022-12-29T03:09:52;8.50;84.40
64987;DHT22;51532;52.108;9.360;2022-12-29T03:12:31;8.50;84.60
64987;DHT22;51532;52.108;9.360;2022-12-29T03:15:31;8.60;84.50
64987;DHT22;51532;52.108;9.360;2022-12-29T03:18:26;8.60;84.40
64987;DHT22;51532;52.108;9.360;2022-12-29T03:23:43;8.60;84.70
64987;DHT22;51532;52.108;9.360;2022-12-29T03:26:17;8.70;84.30
64987;DHT22;51532;52.108;9.360;2022-12-29T03:28:53;8.80;84.10
64987;DHT22;51532;52.108;9.360;2022-12-29T03:31:24;8.70;84.00
64987;DHT22;51532;52.108;9.360;2022-12-29T03:33:53;8.70;84.20
64987;DHT22;51532;52.108;9.360;2022-12-29T03:36:30;8.80;84.00
64987;DHT22;51532;52.108;9.360;2022-12-29T03:39:07;8.80;84.10
64987;DHT22;51532;52.108;9.360;2022-12-29T03:41:36;8.80;84.00
64987;DHT22;51532;52.108;9.360;2022-12-29T03:44:06;8.80;84.10
64987;DHT22;51532;52.108;9.360;2022-12-29T03:46:34;8.90;84.10
64987;DHT22;51532;52.108;9.360;2022-12-29T03:49:02;8.80;84.10
64987;DHT22;51532;52.108;9.360;2022-12-29T03:51:29;8.80;84.30
64987;DHT22;51532;52.108;9.360;2022-12-29T03:53:56;8.80;84.10
64987;DHT22;51532;52.108;9.360;2022-12-29T03:56:24;8.80;84.30
64987;DHT22;51532;52.108;9.360;2022-12-29T03:58:51;8.80;84.40
64987;DHT22;51532;52.108;9.360;2022-12-29T04:01:26;8.90;84.10
64987;DHT22;51532;52.108;9.360;2022-12-29T04:03:52;8.80;84.20
64987;DHT22;51532;52.108;9.360;2022-12-29T04:06:19;8.80;84.30
64987;DHT22;51532;52.108;9.360;2022-12-29T04:08:52;8.90;84.10
64987;DHT22;51532;52.108;9.360;2022-12-29T04:11:20;8.80;84.40
64987;DHT22;51532;52.108;9.360;2022-12-29T04:13:48;8.80;84.70
64987;DHT22;51532;52.108;9.360;2022-12-29T04:16:19;8.90;84.40
64987;DHT22;51532;52.108;9.360;2022-12-29T04:18:46;8.90;84.20
64987;DHT22;51532;52.108;9.360;2022-12-29T04:21:13;9.00;83.90
64987;DHT22;51532;52.108;9.360;2022-12-29T04:23:42;9.00;83.70
64987;DHT22;51532;52.108;9.360;2022-12-29T04:26:09;9.00;83.20
64987;DHT22;51532;52.108;9.360;2022-12-29T04:28:53;9.20;82.40
64987;DHT22;51532;52.108;9.360;2022-12-29T04:31:44;9.40;80.80
64987;DHT22;51532;52.108;9.360;2022-12-29T04:34:12;9.40;80.40
64987;DHT22;51532;52.108;9.360;2022-12-29T04:36:40;9.60;79.00
64987;DHT22;51532;52.108;9.360;2022-12-29T04:39:07;9.80;77.90
64987;DHT22;51532;52.108;9.360;2022-12-29T04:41:35;10.00;77.50
64987;DHT22;51532;52.108;9.360;2022-12-29T04:44:02;9.80;77.60
64987;DHT22;51532;52.108;9.360;2022-12-29T04:46:49;9.80;77.80
64987;DHT22;51532;52.108;9.360;2022-12-29T04:49:28;9.60;78.30
64987;DHT22;51532;52.108;9.360;2022-12-29T04:52:06;9.60;78.10
64987;DHT22;51532;52.108;9.360;2022-12-29T04:54:36;9.70;77.20
64987;DHT22;51532;52.108;9.360;2022-12-29T04:57:08;9.80;76.60
64987;DHT22;51532;52.108;9.360;2022-12-29T04:59:37;9.90;76.50
64987;DHT22;51532;52.108;9.360;2022-12-29T05:02:04;10.00;76.10
64987;DHT22;51532;52.108;9.360;2022-12-29T05:04:33;10.00;76.10
64987;DHT22;51532;52.108;9.360;2022-12-29T05:07:01;10.10;75.40
64987;DHT22;51532;52.108;9.360;2022-12-29T05:09:28;10.20;75.00
64987;DHT22;51532;52.108;9.360;2022-12-29T05:11:56;10.30;74.70
64987;DHT22;51532;52.108;9.360;2022-12-29T05:14:23;10.30;75.00
64987;DHT22;51532;52.108;9.360;2022-12-29T05:16:50;10.30;74.90
64987;DHT22;51532;52.108;9.360;2022-12-29T05:19:17;10.30;74.80
64987;DHT22;51532;52.108;9.360;2022-12-29T05:21:44;10.20;75.40
64987;DHT22;51532;52.108;9.360;2022-12-29T05:24:11;10.20;75.70
64987;DHT22;51532;52.108;9.360;2022-12-29T05:26:38;10.10;76.20
64987;DHT22;51532;52.108;9.360;2022-12-29T05:29:17;10.10;76.60
64987;DHT22;51532;52.108;9.360;2022-12-29T05:31:44;10.00;76.90
64987;DHT22;51532;52.108;9.360;2022-12-29T05:34:11;10.00;77.20
64987;DHT22;51532;52.108;9.360;2022-12-29T05:36:39;10.00;77.70
64987;DHT22;51532;52.108;9.360;2022-12-29T05:39:09;9.90;78.10
64987;DHT22;51532;52.108;9.360;2022-12-29T05:41:37;9.80;78.40
64987;DHT22;51532;52.108;9.360;2022-12-29T05:44:23;9.80;79.00
64987;DHT22;51532;52.108;9.360;2022-12-29T05:47:09;9.70;80.00
64987;DHT22;51532;52.108;9.360;2022-12-29T05:49:56;9.70;80.40
64987;DHT22;51532;52.108;9.360;2022-12-29T05:52:49;9.70;80.90
64987;DHT22;51532;52.108;9.360;2022-12-29T05:55:16;9.60;81.50
64987;DHT22;51532;52.108;9.360;2022-12-29T05:57:46;9.50;82.20
64987;DHT22;51532;52.108;9.360;2022-12-29T06:00:15;9.40;82.80
64987;DHT22;51532;52.108;9.360;2022-12-29T06:02:43;9.40;83.10
64987;DHT22;51532;52.108;9.360;2022-12-29T06:05:10;9.20;83.40
64987;DHT22;51532;52.108;9.360;2022-12-29T06:07:38;9.20;83.70
64987;DHT22;51532;52.108;9.360;2022-12-29T06:10:06;9.40;83.60
64987;DHT22;51532;52.108;9.360;2022-12-29T06:12:41;9.20;83.80
64987;DHT22;51532;52.108;9.360;2022-12-29T06:15:08;9.20;84.00
64987;DHT22;51532;52.108;9.360;2022-12-29T06:17:38;9.30;83.90
64987;DHT22;51532;52.108;9.360;2022-12-29T06:20:06;9.40;82.90
64987;DHT22;51532;52.108;9.360;2022-12-29T06:22:33;9.50;82.60
64987;DHT22;51532;52.108;9.360;2022-12-29T06:25:01;9.50;82.30
64987;DHT22;51532;52.108;9.360;2022-12-29T06:27:32;9.60;81.70
64987;DHT22;51532;52.108;9.360;2022-12-29T06:29:59;9.60;81.90
64987;DHT22;51532;52.108;9.360;2022-12-29T06:32:27;9.60;81.40
64987;DHT22;51532;52.108;9.360;2022-12-29T06:34:59;9.70;81.10
64987;DHT22;51532;52.108;9.360;2022-12-29T06:37:26;9.80;80.70
64987;DHT22;51532;52.108;9.360;2022-12-29T06:39:53;9.90;80.00
64987;DHT22;51532;52.108;9.360;2022-12-29T06:42:20;9.90;79.80
64987;DHT22;51532;52.108;9.360;2022-12-29T06:45:06;10.00;79.20
64987;DHT22;51532;52.108;9.360;2022-12-29T06:47:34;10.10;78.70
64987;DHT22;51532;52.108;9.360;2022-12-29T06:50:02;10.20;78.40
64987;DHT22;51532;52.108;9.360;2022-12-29T06:52:29;10.20;78.00
64987;DHT22;51532;52.108;9.360;2022-12-29T06:54:56;10.20;77.90
64987;DHT22;51532;52.108;9.360;2022-12-29T06:57:22;10.30;77.70
64987;DHT22;51532;52.108;9.360;2022-12-29T06:59:49;10.30;77.50
64987;DHT22;51532;52.108;9.360;2022-12-29T07:02:16;10.30;77.40
64987;DHT22;51532;52.108;9.360;2022-12-29T07:04:46;10.20;77.50
64987;DHT22;51532;52.108;9.360;2022-12-29T07:07:13;10.20;77.40
64987;DHT22;51532;52.108;9.360;2022-12-29T07:09:39;10.20;77.30
64987;DHT22;51532;52.108;9.360;2022-12-29T07:12:06;10.00;77.60
64987;DHT22;51532;52.108;9.360;2022-12-29T07:14:33;10.10;76.90
64987;DHT22;51532;52.108;9.360;2022-12-29T07:17:08;10.10;77.10
64987;DHT22;51532;52.108;9.360;2022-12-29T07:19:35;10.10;76.80
64987;DHT22;51532;52.108;9.360;2022-12-29T07:22:02;10.20;75.50
64987;DHT22;51532;52.108;9.360;2022-12-29T07:24:28;10.30;75.40
64987;DHT22;51532;52.108;9.360;2022-12-29T07:26:56;10.60;73.40
64987;DHT22;51532;52.108;9.360;2022-12-29T07:29:23;10.70;73.40
64987;DHT22;51532;52.108;9.360;2022-12-29T07:31:50;10.70;72.70
64987;DHT22;51532;52.108;9.360;2022-12-29T07:34:17;10.80;72.30
64987;DHT22;51532;52.108;9.360;2022-12-29T07:36:44;10.90;71.80
64987;DHT22;51532;52.108;9.360;2022-12-29T07:39:11;11.00;71.30
64987;DHT22;51532;52.108;9.360;2022-12-29T07:41:38;11.00;71.50
64987;DHT22;51532;52.108;9.360;2022-12-29T07:44:09;10.90;71.50
64987;DHT22;51532;52.108;9.360;2022-12-29T07:46:54;10.80;71.30
64987;DHT22;51532;52.108;9.360;2022-12-29T07:49:24;10.90;71.20
64987;DHT22;51532;52.108;9.360;2022-12-29T07:51:51;10.90;71.70
64987;DHT22;51532;52.108;9.360;2022-12-29T07:54:18;10.90;72.40
64987;DHT22;51532;52.108;9.360;2022-12-29T07:56:46;10.80;73.10
64987;DHT22;51532;52.108;9.360;2022-12-29T07:59:12;10.70;73.70
64987;DHT22;51532;52.108;9.360;2022-12-29T08:01:39;10.70;74.20
64987;DHT22;51532;52.108;9.360;2022-12-29T08:04:06;10.60;74.80
64987;DHT22;51532;52.108;9.360;2022-12-29T08:06:33;10.60;74.80
64987;DHT22;51532;52.108;9.360;2022-12-29T08:09:00;10.60;74.80
64987;DHT22;51532;52.108;9.360;2022-12-29T08:11:40;10.70;74.90
64987;DHT22;51532;52.108;9.360;2022-12-29T08:14:07;10.70;75.00
64987;DHT22;51532;52.108;9.360;2022-12-29T08:16:34;10.70;74.70
64987;DHT22;51532;52.108;9.360;2022-12-29T08:19:01;10.70;74.80
64987;DHT22;51532;52.108;9.360;2022-12-29T08:21:30;10.60;79.40
64987;DHT22;51532;52.108;9.360;2022-12-29T08:23:57;10.00;86.80
64987;DHT22;51532;52.108;9.360;2022-12-29T08:26:25;9.40;90.30
64987;DHT22;51532;52.108;9.360;2022-12-29T08:28:53;9.30;88.90
64987;DHT22;51532;52.108;9.360;2022-12-29T08:31:21;9.00;91.90
64987;DHT22;51532;52.108;9.360;2022-12-29T08:33:48;8.70;93.40
64987;DHT22;51532;52.108;9.360;2022-12-29T08:36:15;8.50;93.20
64987;DHT22;51532;52.108;9.360;2022-12-29T08:38:42;8.40;93.00
64987;DHT22;51532;52.108;9.360;2022-12-29T08:41:09;8.40;93.20
64987;DHT22;51532;52.108;9.360;2022-12-29T08:43:36;8.40;93.60
64987;DHT22;51532;52.108;9.360;2022-12-29T08:46:03;8.50;93.30
64987;DHT22;51532;52.108;9.360;2022-12-29T08:48:30;8.50;93.40
64987;DHT22;51532;52.108;9.360;2022-12-29T08:50:56;8.60;93.60
64987;DHT22;51532;52.108;9.360;2022-12-29T08:53:23;8.60;93.60
64987;DHT22;51532;52.108;9.360;2022-12-29T08:55:57;8.80;93.00
64987;DHT22;51532;52.108;9.360;2022-12-29T08:58:35;8.90;92.60
64987;DHT22;51532;52.108;9.360;2022-12-29T09:01:02;8.90;92.80
64987;DHT22;51532;52.108;9.360;2022-12-29T09:03:30;8.80;93.50
64987;DHT22;51532;52.108;9.360;2022-12-29T09:06:17;8.70;94.10
64987;DHT22;51532;52.108;9.360;2022-12-29T09:08:44;8.60;94.50
64987;DHT22;51532;52.108;9.360;2022-12-29T09:11:14;8.80;94.40
64987;DHT22;51532;52.108;9.360;2022-12-29T09:13:42;8.80;94.30
64987;DHT22;51532;52.108;9.360;2022-12-29T09:16:09;8.80;94.10
64987;DHT22;51532;52.108;9.360;2022-12-29T09:18:37;8.90;93.40
64987;DHT22;51532;52.108;9.360;2022-12-29T09:21:05;8.90;93.70
64987;DHT22;51532;52.108;9.360;2022-12-29T09:23:33;8.90;93.90
64987;DHT22;51532;52.108;9.360;2022-12-29T09:26:00;8.90;93.10
64987;DHT22;51532;52.108;9.360;2022-12-29T09:28:27;9.00;90.50
64987;DHT22;51532;52.108;9.360;2022-12-29T09:30:56;9.10;90.10
64987;DHT22;51532;52.108;9.360;2022-12-29T09:33:24;9.20;88.70
64987;DHT22;51532;52.108;9.360;2022-12-29T09:35:52;9.20;88.70
64987;DHT22;51532;52.108;9.360;2022-12-29T09:38:19;9.30;87.00
64987;DHT22;51532;52.108;9.360;2022-12-29T09:41:01;9.50;85.90
64987;DHT22;51532;52.108;9.360;2022-12-29T09:43:43;9.50;85.50
64987;DHT22;51532;52.108;9.360;2022-12-29T09:46:26;9.60;84.00
64987;DHT22;51532;52.108;9.360;2022-12-29T09:51:36;9.70;83.50
64987;DHT22;51532;52.108;9.360;2022-12-29T09:54:22;9.80;84.00
64987;DHT22;51532;52.108;9.360;2022-12-29T09:56:52;10.00;83.10
64987;DHT22;51532;52.108;9.360;2022-12-29T09:59:22;10.00;80.90
64987;DHT22;51532;52.108;9.360;2022-12-29T10:02:02;10.20;79.40
64987;DHT22;51532;52.108;9.360;2022-12-29T10:04:31;10.20;81.00
64987;DHT22;51532;52.108;9.360;2022-12-29T10:07:17;10.00;84.70
64987;DHT22;51532;52.108;9.360;2022-12-29T10:10:07;9.90;87.90
64987;DHT22;51532;52.108;9.360;2022-12-29T10:12:55;9.90;87.70
64987;DHT22;51532;52.108;9.360;2022-12-29T10:15:46;9.90;86.80
64987;DHT22;51532;52.108;9.360;2022-12-29T10:18:39;10.00;85.70
64987;DHT22;51532;52.108;9.360;2022-12-29T10:21:08;10.00;85.30
64987;DHT22;51532;52.108;9.360;2022-12-29T10:23:44;10.00;83.90
64987;DHT22;51532;52.108;9.360;2022-12-29T10:26:21;10.10;79.30
64987;DHT22;51532;52.108;9.360;2022-12-29T10:28:56;10.20;78.50
64987;DHT22;51532;52.108;9.360;2022-12-29T10:31:41;10.30;79.20
64987;DHT22;51532;52.108;9.360;2022-12-29T10:34:23;10.40;76.20
64987;DHT22;51532;52.108;9.360;2022-12-29T10:37:02;10.40;76.60
64987;DHT22;51532;52.108;9.360;2022-12-29T10:39:32;10.50;74.10
64987;DHT22;51532;52.108;9.360;2022-12-29T10:42:20;10.50;73.80
64987;DHT22;51532;52.108;9.360;2022-12-29T10:44:56;10.50;74.90
64987;DHT22;51532;52.108;9.360;2022-12-29T10:47:29;10.50;74.70
64987;DHT22;51532;52.108;9.360;2022-12-29T10:49:57;10.50;72.00
64987;DHT22;51532;52.108;9.360;2022-12-29T10:52:28;10.50;72.90
64987;DHT22;51532;52.108;9.360;2022-12-29T10:55:08;10.50;71.40
64987;DHT22;51532;52.108;9.360;2022-12-29T10:57:42;10.60;71.90
64987;DHT22;51532;52.108;9.360;2022-12-29T11:00:18;10.70;71.70
64987;DHT22;51532;52.108;9.360;2022-12-29T11:06:09;10.80;71.80
64987;DHT22;51532;52.108;9.360;2022-12-29T11:08:45;10.90;70.30
64987;DHT22;51532;52.108;9.360;2022-12-29T11:11:26;10.90;70.00
64987;DHT22;51532;52.108;9.360;2022-12-29T11:16:41;11.00;69.80
64987;DHT22;51532;52.108;9.360;2022-12-29T11:19:29;11.00;69.50
64987;DHT22;51532;52.108;9.360;2022-12-29T11:22:23;11.00;67.30
64987;DHT22;51532;52.108;9.360;2022-12-29T11:24:52;10.90;69.20
64987;DHT22;51532;52.108;9.360;2022-12-29T11:27:24;10.90;67.80
64987;DHT22;51532;52.108;9.360;2022-12-29T11:29:53;10.80;67.70
64987;DHT22;51532;52.108;9.360;2022-12-29T11:34:56;10.70;66.80
64987;DHT22;51532;52.108;9.360;2022-12-29T11:40:01;10.90;67.30
64987;DHT22;51532;52.108;9.360;2022-12-29T11:42:37;10.80;67.70
64987;DHT22;51532;52.108;9.360;2022-12-29T11:47:37;10.90;67.40
64987;DHT22;51532;52.108;9.360;2022-12-29T11:50:06;10.90;67.70
64987;DHT22;51532;52.108;9.360;2022-12-29T11:52:36;11.00;67.00
64987;DHT22;51532;52.108;9.360;2022-12-29T11:55:17;11.00;67.00
64987;DHT22;51532;52.108;9.360;2022-12-29T11:57:45;10.90;66.40
64987;DHT22;51532;52.108;9.360;2022-12-29T12:00:18;10.90;66.40
64987;DHT22;51532;52.108;9.360;2022-12-29T12:03:04;10.90;66.00
64987;DHT22;51532;52.108;9.360;2022-12-29T12:06:01;10.80;66.90
64987;DHT22;51532;52.108;9.360;2022-12-29T12:08:48;10.80;67.20
64987;DHT22;51532;52.108;9.360;2022-12-29T12:11:39;10.80;67.50
64987;DHT22;51532;52.108;9.360;2022-12-29T12:14:20;10.80;66.60
64987;DHT22;51532;52.108;9.360;2022-12-29T12:17:25;10.80;66.40
64987;DHT22;51532;52.108;9.360;2022-12-29T12:20:16;10.80;67.10
64987;DHT22;51532;52.108;9.360;2022-12-29T12:25:43;10.70;67.00
64987;DHT22;51532;52.108;9.360;2022-12-29T12:28:22;10.80;65.90
64987;DHT22;51532;52.108;9.360;2022-12-29T12:30:55;10.80;66.60
64987;DHT22;51532;52.108;9.360;2022-12-29T12:33:37;10.80;66.70
64987;DHT22;51532;52.108;9.360;2022-12-29T12:36:23;10.80;66.40
64987;DHT22;51532;52.108;9.360;2022-12-29T12:39:05;10.70;67.20
64987;DHT22;51532;52.108;9.360;2022-12-29T12:42:11;10.80;66.50
64987;DHT22;51532;52.108;9.360;2022-12-29T12:44:51;10.70;67.30
64987;DHT22;51532;52.108;9.360;2022-12-29T12:50:47;10.80;66.10
64987;DHT22;51532;52.108;9.360;2022-12-29T12:53:34;10.80;65.70
64987;DHT22;51532;52.108;9.360;2022-12-29T12:56:22;10.80;65.70
64987;DHT22;51532;52.108;9.360;2022-12-29T12:59:03;10.80;65.40
64987;DHT22;51532;52.108;9.360;2022-12-29T13:02:02;10.80;65.20
64987;DHT22;51532;52.108;9.360;2022-12-29T13:05:05;10.80;65.40
64987;DHT22;51532;52.108;9.360;2022-12-29T13:07:59;10.80;64.70
64987;DHT22;51532;52.108;9.360;2022-12-29T13:10:59;10.90;64.50
64987;DHT22;51532;52.108;9.360;2022-12-29T13:13:53;10.80;65.10
64987;DHT22;51532;52.108;9.360;2022-12-29T13:16:34;10.90;64.20
64987;DHT22;51532;52.108;9.360;2022-12-29T13:19:34;10.90;63.70
64987;DHT22;51532;52.108;9.360;2022-12-29T13:22:17;10.90;63.70
64987;DHT22;51532;52.108;9.360;2022-12-29T13:27:32;10.90;64.70
64987;DHT22;51532;52.108;9.360;2022-12-29T13:30:14;10.90;64.00
64987;DHT22;51532;52.108;9.360;2022-12-29T13:38:26;10.80;64.30
64987;DHT22;51532;52.108;9.360;2022-12-29T13:43:54;10.80;64.20
64987;DHT22;51532;52.108;9.360;2022-12-29T13:46:39;10.70;64.40
64987;DHT22;51532;52.108;9.360;2022-12-29T13:49:19;10.70;64.30
64987;DHT22;51532;52.108;9.360;2022-12-29T13:51:52;10.70;64.80
64987;DHT22;51532;52.108;9.360;2022-12-29T14:00:20;10.70;64.10
64987;DHT22;51532;52.108;9.360;2022-12-29T14:08:39;10.70;64.00
64987;DHT22;51532;52.108;9.360;2022-12-29T14:11:11;10.70;64.00
64987;DHT22;51532;52.108;9.360;2022-12-29T14:13:40;10.70;63.80
64987;DHT22;51532;52.108;9.360;2022-12-29T14:18:50;10.50;65.00
64987;DHT22;51532;52.108;9.360;2022-12-29T14:21:20;10.50;65.30
64987;DHT22;51532;52.108;9.360;2022-12-29T14:23:50;10.60;65.10
64987;DHT22;51532;52.108;9.360;2022-12-29T14:28:48;10.60;64.80
64987;DHT22;51532;52.108;9.360;2022-12-29T14:36:40;10.50;64.50
64987;DHT22;51532;52.108;9.360;2022-12-29T14:39:41;10.60;64.60
64987;DHT22;51532;52.108;9.360;2022-12-29T14:45:01;10.50;65.10
64987;DHT22;51532;52.108;9.360;2022-12-29T14:50:16;10.30;66.40
64987;DHT22;51532;52.108;9.360;2022-12-29T14:52:59;10.20;67.00
64987;DHT22;51532;52.108;9.360;2022-12-29T14:55:46;10.20;66.80
64987;DHT22;51532;52.108;9.360;2022-12-29T14:58:32;10.20;66.90
64987;DHT22;51532;52.108;9.360;2022-12-29T15:01:01;10.20;67.40
64987;DHT22;51532;52.108;9.360;2022-12-29T15:03:46;10.10;68.40
64987;DHT22;51532;52.108;9.360;2022-12-29T15:06:17;10.00;68.70
64987;DHT22;51532;52.108;9.360;2022-12-29T15:09:10;10.00;68.90
64987;DHT22;51532;52.108;9.360;2022-12-29T15:11:42;9.90;69.60
64987;DHT22;51532;52.108;9.360;2022-12-29T15:16:58;9.70;70.50
64987;DHT22;51532;52.108;9.360;2022-12-29T15:19:27;9.70;71.30
64987;DHT22;51532;52.108;9.360;2022-12-29T15:21:55;9.60;72.20
64987;DHT22;51532;52.108;9.360;2022-12-29T15:24:23;9.50;74.70
64987;DHT22;51532;52.108;9.360;2022-12-29T15:26:52;9.20;78.70
64987;DHT22;51532;52.108;9.360;2022-12-29T15:29:37;9.00;78.70
64987;DHT22;51532;52.108;9.360;2022-12-29T15:32:25;8.90;79.70
64987;DHT22;51532;52.108;9.360;2022-12-29T15:34:54;8.90;79.00
64987;DHT22;51532;52.108;9.360;2022-12-29T15:37:33;8.80;79.10
64987;DHT22;51532;52.108;9.360;2022-12-29T15:40:00;8.80;77.50
64987;DHT22;51532;52.108;9.360;2022-12-29T15:45:34;8.80;77.90
64987;DHT22;51532;52.108;9.360;2022-12-29T15:48:03;8.90;76.60
64987;DHT22;51532;52.108;9.360;2022-12-29T15:50:33;8.90;75.20
64987;DHT22;51532;52.108;9.360;2022-12-29T15:53:02;9.00;74.80
64987;DHT22;51532;52.108;9.360;2022-12-29T15:55:34;8.90;74.80
64987;DHT22;51532;52.108;9.360;2022-12-29T15:58:05;9.00;74.60
64987;DHT22;51532;52.108;9.360;2022-12-29T16:00:34;9.10;74.50
64987;DHT22;51532;52.108;9.360;2022-12-29T16:03:05;9.20;73.60
64987;DHT22;51532;52.108;9.360;2022-12-29T16:05:39;9.10;74.10
64987;DHT22;51532;52.108;9.360;2022-12-29T16:08:22;9.20;73.00
64987;DHT22;51532;52.108;9.360;2022-12-29T16:10:50;9.20;72.50
64987;DHT22;51532;52.108;9.360;2022-12-29T16:13:25;9.20;72.00
64987;DHT22;51532;52.108;9.360;2022-12-29T16:15:59;9.30;71.70
64987;DHT22;51532;52.108;9.360;2022-12-29T16:18:35;9.40;71.00
64987;DHT22;51532;52.108;9.360;2022-12-29T16:21:05;9.40;70.60
64987;DHT22;51532;52.108;9.360;2022-12-29T16:23:36;9.40;70.90
64987;DHT22;51532;52.108;9.360;2022-12-29T16:26:03;9.40;71.30
64987;DHT22;51532;52.108;9.360;2022-12-29T16:28:39;9.40;70.90
64987;DHT22;51532;52.108;9.360;2022-12-29T16:31:32;9.40;71.60
64987;DHT22;51532;52.108;9.360;2022-12-29T16:37:04;9.20;72.10
64987;DHT22;51532;52.108;9.360;2022-12-29T16:39:34;9.30;72.20
64987;DHT22;51532;52.108;9.360;2022-12-29T16:50:34;9.20;71.60
64987;DHT22;51532;52.108;9.360;2022-12-29T16:53:02;9.20;73.00
64987;DHT22;51532;52.108;9.360;2022-12-29T16:55:29;9.20;73.70
64987;DHT22;51532;52.108;9.360;2022-12-29T16:57:58;9.30;72.60
64987;DHT22;51532;52.108;9.360;2022-12-29T17:00:28;9.20;72.80
64987;DHT22;51532;52.108;9.360;2022-12-29T17:02:58;9.20;72.70
64987;DHT22;51532;52.108;9.360;2022-12-29T17:05:26;9.20;72.60
64987;DHT22;51532;52.108;9.360;2022-12-29T17:07:52;9.20;73.50
64987;DHT22;51532;52.108;9.360;2022-12-29T17:10:19;9.00;73.80
64987;DHT22;51532;52.108;9.360;2022-12-29T17:12:48;9.00;73.20
64987;DHT22;51532;52.108;9.360;2022-12-29T17:15:19;9.00;72.80
64987;DHT22;51532;52.108;9.360;2022-12-29T17:17:49;9.00;73.40
64987;DHT22;51532;52.108;9.360;2022-12-29T17:20:22;9.00;73.60
64987;DHT22;51532;52.108;9.360;2022-12-29T17:22:49;9.10;72.50
64987;DHT22;51532;52.108;9.360;2022-12-29T17:25:22;9.20;72.60
64987;DHT22;51532;52.108;9.360;2022-12-29T17:27:58;9.20;72.00
64987;DHT22;51532;52.108;9.360;2022-12-29T17:30:27;9.10;71.70
64987;DHT22;51532;52.108;9.360;2022-12-29T17:33:09;9.20;72.00
64987;DHT22;51532;52.108;9.360;2022-12-29T17:35:38;9.20;71.50
64987;DHT22;51532;52.108;9.360;2022-12-29T17:38:33;9.20;71.80
64987;DHT22;51532;52.108;9.360;2022-12-29T17:41:00;9.20;71.40
64987;DHT22;51532;52.108;9.360;2022-12-29T17:43:27;9.20;70.60
64987;DHT22;51532;52.108;9.360;2022-12-29T17:46:02;9.20;70.60
64987;DHT22;51532;52.108;9.360;2022-12-29T17:48:50;9.40;68.40
64987;DHT22;51532;52.108;9.360;2022-12-29T17:51:20;9.30;69.00
64987;DHT22;51532;52.108;9.360;2022-12-29T17:53:47;9.40;66.90
64987;DHT22;51532;52.108;9.360;2022-12-29T17:56:15;9.40;67.70
64987;DHT22;51532;52.108;9.360;2022-12-29T17:58:49;9.30;68.40
64987;DHT22;51532;52.108;9.360;2022-12-29T18:01:17;9.30;68.10
64987;DHT22;51532;52.108;9.360;2022-12-29T18:03:47;9.40;66.90
64987;DHT22;51532;52.108;9.360;2022-12-29T18:06:14;9.40;67.60
64987;DHT22;51532;52.108;9.360;2022-12-29T18:08:41;9.40;66.60